• Join FlightAware (Why Join?)
  • Login
  • US Flag 
08:14PM EDT


 

Airport Tracker/Info


-or-


 

Live Flight TrackerFlight Track Log ✈ KAP644 ✈ 2013年06月12日 ✈ KBOS - KMVY

Flight Track Log - Related Links

Times and Time Zones

All times are in EDT time to prevent confusion due to time zone crossing. See the KAP644 flight status page for this flight to view local times or setup timezone preferences in your user account.

Time Position Orientation Groundspeed Altitude Reporting Facility
EDT Latitude Longitude Course Direction KTS MPH feet Rate Location/Type
08:03AM 42.3667 -71.0167 180° South 113 130 400  Level KA90
08:04AM 42.3333 -71.0167 180° South 117 135 1,200 900 Climbing KA90
08:05AM 42.2833 -71.0333 194° South 129 148 2,300 780 Climbing KA90
08:06AM 42.2667 -71.0500 217° Southwest 130 150 2,900 600 Climbing KA90
08:07AM 42.2167 -71.0500 180° South 139 160 3,500 540 Climbing KA90
08:08AM 42.2000 -71.0167 124° Southeast 155 178 4,000 600 Climbing KA90
08:09AM 42.1667 -70.9833 143° Southeast 155 178 4,700 660 Climbing KA90
08:11AM 42.1133 -70.9575 166° South  Level Estimated
08:18AM 41.8593 -70.7906 161° South  Level FlightAware Approximate
08:19AM 41.8210 -70.7731 161° South  Level FlightAware Approximate
08:20AM 41.7826 -70.7557 161° South  Level FlightAware Approximate
08:21AM 41.7443 -70.7383 161° South  Level FlightAware Approximate
08:22AM 41.7055 -70.7229 164° South  Level FlightAware Approximate
08:23AM 41.6665 -70.7083 164° South  Level FlightAware Approximate
08:24AM 41.6275 -70.6936 164° South  Level FlightAware Approximate
08:25AM 41.5886 -70.6790 164° South  Level FlightAware Approximate
08:26AM 41.5496 -70.6644 164° South  Level FlightAware Approximate
08:27AM 41.5106 -70.6498 164° South  Level FlightAware Approximate
08:28AM 41.4716 -70.6352 164° South  Level FlightAware Approximate
08:29AM 41.4328 -70.6198 163° South  Level FlightAware Approximate
08:30AM 41.3941 -70.6043 163° South  Level FlightAware Approximate
08:31AM 41.3833 -70.6000 163° South  Level FlightAware Approximate
08:32AM 41.3934 -70.6139 163° South  Level Estimated
08:33AM 41.3934 -70.6139 163° South  Level Estimated